Time;durP1;ratioP1;P1;durP2;ratioP2;P2;SDS_P1;SDS_P2;PMS_P1;PMS_P2;Temp;Humidity;BMP_temperature;BMP_pressure;BME280_temperature;BME280_humidity;BME280_pressure;Samples;Min_cycle;Max_cycle;Signal;HPM_P1;HPM_P2
2022/06/24 00:00:38;;;;;;;3.90;2.70;;;;;;;13.58;65.19;97237.45;110057;1250;70766;-79
2022/06/24 00:03:15;;;;;;;3.10;2.80;;;;;;;13.54;65.47;97235.73;110042;1250;68538;-76
2022/06/24 00:05:46;;;;;;;5.90;2.70;;;;;;;13.51;65.14;97238.09;110101;1247;69472;-73
2022/06/24 00:08:16;;;;;;;4.20;2.60;;;;;;;13.49;65.22;97238.56;109988;1250;59767;-78
2022/06/24 00:10:46;;;;;;;3.90;2.70;;;;;;;13.48;65.00;97241.23;109946;1250;59773;-76
2022/06/24 00:13:16;;;;;;;3.20;2.40;;;;;;;13.48;65.57;97241.43;109887;1250;71410;-78
2022/06/24 00:15:46;;;;;;;2.90;2.20;;;;;;;13.49;65.29;97240.14;110113;1247;68409;-79
2022/06/24 00:18:17;;;;;;;3.10;2.60;;;;;;;13.49;65.21;97239.42;109928;1247;68555;-79
2022/06/24 00:20:51;;;;;;;5.00;3.60;;;;;;;13.49;65.98;97240.34;110145;1247;59704;-79
2022/06/24 00:23:22;;;;;;;3.90;2.20;;;;;;;13.47;62.65;97237.81;109964;1250;59727;-79
2022/06/24 00:25:54;;;;;;;3.50;2.60;;;;;;;13.44;62.28;97243.02;110151;1250;70537;-80
2022/06/24 00:28:26;;;;;;;3.00;2.60;;;;;;;13.41;65.43;97241.73;110041;1250;67772;-79
2022/06/24 00:30:56;;;;;;;2.80;2.20;;;;;;;13.38;65.71;97240.77;110096;1249;69741;-77
2022/06/24 00:33:36;;;;;;;3.10;2.70;;;;;;;13.33;65.34;97243.34;109956;1249;59767;-77
2022/06/24 00:36:07;;;;;;;3.90;2.40;;;;;;;13.28;65.27;97245.98;109954;1250;59618;-78
2022/06/24 00:38:38;;;;;;;4.50;2.90;;;;;;;13.23;66.58;97245.88;109917;1250;69883;-77
2022/06/24 00:41:14;;;;;;;3.70;2.80;;;;;;;13.17;66.55;97247.81;110017;1250;68607;-79
2022/06/24 00:43:49;;;;;;;3.50;2.50;;;;;;;13.10;66.49;97247.00;110240;1247;68654;-79
2022/06/24 00:46:27;;;;;;;3.00;2.20;;;;;;;13.00;66.93;97244.31;109866;1247;59756;-68
2022/06/24 00:48:59;;;;;;;2.80;2.30;;;;;;;12.95;64.64;97238.62;110174;1249;59684;-73
2022/06/24 00:51:37;;;;;;;2.90;2.60;;;;;;;12.92;65.96;97241.01;109939;1250;71590;-69
2022/06/24 00:54:12;;;;;;;3.50;3.10;;;;;;;12.88;66.97;97239.76;109960;1247;68556;-80
2022/06/24 00:56:45;;;;;;;4.30;3.90;;;;;;;12.76;65.84;97235.84;109946;1249;69234;-78
2022/06/24 00:59:27;;;;;;;6.00;3.70;;;;;;;12.52;67.08;97237.73;110161;1247;59702;-78
2022/06/24 01:02:57;;;;;;;3.90;3.50;;;;;;;12.27;69.85;97237.50;109531;1253;59693;-77
2022/06/24 01:05:30;;;;;;;4.00;3.10;;;;;;;12.16;69.89;97238.08;109628;1254;70745;-79
2022/06/24 01:08:07;;;;;;;3.50;2.70;;;;;;;12.06;69.78;97233.51;109656;1253;67706;-79
2022/06/24 01:10:38;;;;;;;3.50;3.20;;;;;;;11.97;70.88;97230.68;109694;1253;69445;-76
2022/06/24 01:13:09;;;;;;;3.30;2.60;;;;;;;11.93;71.16;97229.33;109644;1253;59756;-80
2022/06/24 01:15:39;;;;;;;3.40;2.50;;;;;;;11.91;69.40;97223.88;109523;1254;59762;-72
2022/06/24 01:19:01;;;;;;;3.00;2.70;;;;;;;11.91;69.23;97220.75;109558;1253;72039;-77
2022/06/24 01:21:42;;;;;;;4.30;3.50;;;;;;;11.91;71.74;97223.34;109672;1253;69342;-79
2022/06/24 01:24:12;;;;;;;;;;;;;;;11.86;70.64;97221.67;109668;1253;69249;-79
2022/06/24 01:26:50;;;;;;;3.80;3.30;;;;;;;11.80;71.28;97221.99;109747;1253;59817;-73
2022/06/24 01:29:21;;;;;;;4.30;3.00;;;;;;;11.73;71.24;97223.89;109598;1252;59736;-77
2022/06/24 01:31:53;;;;;;;4.50;2.80;;;;;;;11.69;72.17;97223.67;109564;1254;71560;-75
2022/06/24 01:34:24;;;;;;;3.70;3.30;;;;;;;11.67;72.65;97225.27;109454;1254;68241;-78
2022/06/24 01:36:54;;;;;;;3.10;2.70;;;;;;;11.63;70.87;97223.77;109524;1253;68642;-78
2022/06/24 01:39:24;;;;;;;4.20;3.50;;;;;;;11.62;70.46;97224.92;109823;1248;59730;-78
2022/06/24 01:41:55;;;;;;;4.80;3.40;;;;;;;11.66;70.41;97219.95;110004;1249;59723;-79
2022/06/24 01:44:26;;;;;;;3.90;3.30;;;;;;;11.74;70.76;97218.95;110208;1247;71343;-77
2022/06/24 01:46:56;;;;;;;4.00;3.50;;;;;;;11.80;69.48;97221.73;110068;1250;68421;-78
2022/06/24 01:49:26;;;;;;;3.80;3.00;;;;;;;11.75;69.94;97220.20;110130;1247;69380;-79
2022/06/24 01:52:01;;;;;;;3.30;2.90;;;;;;;11.65;70.22;97218.42;109932;1249;59751;-78
2022/06/24 01:54:31;;;;;;;3.50;2.80;;;;;;;11.55;70.79;97221.34;109948;1248;59702;-79
2022/06/24 01:57:02;;;;;;;3.00;2.50;;;;;;;11.44;70.73;97221.45;109994;1247;71558;-78
2022/06/24 01:59:31;;;;;;;;;;;;;;;11.38;71.09;97227.20;109993;1248;68980;-77
2022/06/24 02:02:01;;;;;;;3.60;2.70;;;;;;;11.32;71.74;97227.35;110128;1246;69404;-77
2022/06/24 02:04:31;;;;;;;;;;;;;;;11.28;71.74;97226.93;109916;1248;59780;-76
2022/06/24 02:07:01;;;;;;;3.40;2.90;;;;;;;11.25;71.97;97226.67;110296;1247;59727;-77
2022/06/24 02:13:26;;;;;;;3.70;3.00;;;;;;;11.28;71.91;97229.20;109990;1249;70759;-78
2022/06/24 02:15:26;;;;;;;4.00;2.70;;;;;;;11.35;70.97;97228.17;109596;1253;68855;-78
2022/06/24 02:17:56;;;;;;;3.10;2.40;;;;;;;11.36;71.14;97225.58;109862;1250;59671;-79
2022/06/24 02:20:26;;;;;;;;;;;;;;;11.36;72.17;97225.45;110204;1247;59688;-78
2022/06/24 02:22:56;;;;;;;4.20;2.80;;;;;;;11.33;71.51;97225.55;110239;1247;70561;-75
2022/06/24 02:25:25;;;;;;;3.80;2.50;;;;;;;11.30;72.01;97226.84;110226;1247;68540;-82
2022/06/24 02:27:55;;;;;;;3.60;2.80;;;;;;;11.27;72.88;97229.13;110037;1248;68738;-81
2022/06/24 02:30:26;;;;;;;3.40;2.50;;;;;;;11.24;73.95;97226.39;110202;1247;59676;-78
2022/06/24 02:32:56;;;;;;;4.60;2.90;;;;;;;11.21;73.39;97225.71;110213;1247;59693;-79
2022/06/24 02:35:27;;;;;;;3.00;2.60;;;;;;;11.19;74.10;97228.54;110232;1247;71554;-78
2022/06/24 02:37:57;;;;;;;3.60;2.50;;;;;;;11.17;73.88;97229.17;110142;1248;68791;-80
2022/06/24 02:40:45;;;;;;;3.40;2.60;;;;;;;11.16;72.97;97231.36;110222;1247;69911;-80
2022/06/24 02:43:25;;;;;;;4.00;2.70;;;;;;;11.16;73.62;97241.16;110190;1249;59762;-79
2022/06/24 02:46:02;;;;;;;4.50;3.10;;;;;;;11.14;74.52;97241.09;110158;1250;59727;-77
2022/06/24 02:48:34;;;;;;;4.60;2.70;;;;;;;11.14;73.31;97246.73;110258;1247;71332;-78
2022/06/24 02:51:08;;;;;;;4.30;3.20;;;;;;;11.15;70.89;97249.58;110212;1249;67840;-79
2022/06/24 02:53:39;;;;;;;3.10;2.80;;;;;;;11.16;71.51;97244.44;110240;1247;69401;-82
2022/06/24 02:56:12;;;;;;;3.20;2.80;;;;;;;11.18;71.04;97247.27;110030;1250;59825;-80
2022/06/24 02:58:42;;;;;;;4.00;2.30;;;;;;;11.18;71.38;97253.53;109917;1250;59749;-82
2022/06/24 03:01:11;;;;;;;3.60;2.90;;;;;;;11.16;72.57;97257.30;110078;1247;71553;-80
2022/06/24 03:03:42;;;;;;;3.60;2.90;;;;;;;11.12;73.89;97257.35;110245;1247;68569;-80
2022/06/24 03:06:12;;;;;;;3.50;2.90;;;;;;;11.07;72.87;97255.11;110192;1247;69434;-80
2022/06/24 03:08:43;;;;;;;4.30;3.40;;;;;;;11.06;71.42;97249.44;110207;1247;59765;-73
2022/06/24 03:11:14;;;;;;;3.00;2.40;;;;;;;11.09;71.71;97252.87;110222;1247;59698;-72
2022/06/24 03:13:45;;;;;;;4.90;3.90;;;;;;;11.14;72.16;97253.54;110206;1247;71521;-80
2022/06/24 03:16:15;;;;;;;6.10;3.70;;;;;;;11.13;71.87;97256.02;110241;1247;68438;-78
2022/06/24 03:18:45;;;;;;;3.80;3.20;;;;;;;11.06;73.45;97262.16;110202;1247;68670;-76
2022/06/24 03:21:15;;;;;;;5.20;3.70;;;;;;;11.04;74.30;97267.73;110227;1247;59743;-76
2022/06/24 03:23:45;;;;;;;4.50;3.80;;;;;;;11.02;73.47;97267.00;110002;1248;59653;-79
2022/06/24 03:26:16;;;;;;;4.70;3.30;;;;;;;11.06;72.95;97271.71;110210;1247;70378;-77
2022/06/24 03:28:46;;;;;;;3.80;2.90;;;;;;;11.15;72.82;97273.31;110180;1247;67472;-79
2022/06/24 03:31:16;;;;;;;5.50;3.80;;;;;;;11.25;73.25;97273.05;110160;1247;69391;-81
2022/06/24 03:33:47;;;;;;;5.00;3.90;;;;;;;11.36;73.50;97274.17;110118;1249;59698;-78
2022/06/24 03:36:16;;;;;;;;;;;;;;;11.46;72.70;97270.33;109993;1250;59713;-77
2022/06/24 03:38:46;;;;;;;3.70;3.30;;;;;;;11.57;71.77;97267.77;109988;1250;71498;-80
2022/06/24 03:41:16;;;;;;;4.10;3.30;;;;;;;11.65;70.91;97271.83;110177;1247;68120;-78
2022/06/24 03:43:45;;;;;;;4.90;3.00;;;;;;;11.70;70.87;97273.04;110205;1247;69380;-80
2022/06/24 03:46:14;;;;;;;4.50;3.50;;;;;;;11.73;70.82;97274.84;110166;1247;59727;-79
2022/06/24 03:48:44;;;;;;;4.40;3.20;;;;;;;11.74;71.98;97277.25;110179;1247;60094;-80
2022/06/24 03:51:13;;;;;;;5.30;3.50;;;;;;;11.70;72.54;97279.98;110259;1248;70618;-77
2022/06/24 03:53:43;;;;;;;4.90;3.60;;;;;;;11.72;72.70;97282.63;110172;1248;68425;-79
2022/06/24 03:56:13;;;;;;;;;;;;;;;11.73;73.23;97284.08;109926;1248;69211;-82
2022/06/24 03:58:42;;;;;;;4.70;3.40;;;;;;;11.76;73.31;97286.50;110165;1248;59757;-80
2022/06/24 04:01:12;;;;;;;6.40;4.50;;;;;;;11.82;72.61;97293.58;109951;1248;59742;-78
2022/06/24 04:03:42;;;;;;;6.70;3.60;;;;;;;11.89;72.49;97293.37;110187;1247;70801;-76
2022/06/24 04:06:11;;;;;;;4.30;3.00;;;;;;;12.00;72.71;97293.55;110211;1247;67735;-80
2022/06/24 04:08:40;;;;;;;4.40;3.00;;;;;;;12.11;71.91;97295.05;110160;1247;69317;-76
2022/06/24 04:11:14;;;;;;;4.70;3.40;;;;;;;12.25;72.57;97297.27;110198;1247;59716;-78
2022/06/24 04:13:44;;;;;;;5.70;4.40;;;;;;;12.39;72.11;97296.50;109820;1250;59640;-74
2022/06/24 04:16:13;;;;;;;6.10;4.20;;;;;;;12.53;71.33;97295.52;110231;1247;70571;-77
2022/06/24 04:18:43;;;;;;;4.80;3.40;;;;;;;12.64;71.07;97293.58;109977;1248;67765;-80
2022/06/24 04:21:14;;;;;;;5.70;3.30;;;;;;;12.74;70.89;97294.05;110155;1249;69459;-77
2022/06/24 04:23:45;;;;;;;4.00;3.00;;;;;;;12.89;70.19;97293.21;109730;1250;59717;-80
2022/06/24 04:26:16;;;;;;;4.60;3.50;;;;;;;13.06;70.67;97297.39;110127;1248;59695;-76
2022/06/24 04:28:46;;;;;;;4.20;3.00;;;;;;;13.21;70.53;97300.96;110214;1248;70795;-79
2022/06/24 04:31:15;;;;;;;6.60;3.50;;;;;;;13.37;69.81;97303.36;109924;1248;68416;-79
2022/06/24 04:33:44;;;;;;;6.10;3.30;;;;;;;13.54;69.32;97306.89;109944;1247;68790;-78
2022/06/24 04:36:14;;;;;;;6.50;3.70;;;;;;;13.73;68.81;97309.30;109963;1250;59722;-79
2022/06/24 04:38:44;;;;;;;3.90;2.90;;;;;;;13.91;68.48;97310.55;110372;1248;59648;-81
2022/06/24 04:41:16;;;;;;;4.80;3.30;;;;;;;14.09;67.95;97316.98;109895;1250;71528;-79
2022/06/24 04:43:45;;;;;;;5.20;3.30;;;;;;;14.27;67.28;97315.06;109998;1249;68611;-75
2022/06/24 04:46:14;;;;;;;3.90;3.30;;;;;;;14.44;66.64;97310.23;109885;1250;69445;-80
2022/06/24 04:48:43;;;;;;;4.30;2.70;;;;;;;14.61;66.04;97312.04;110003;1250;59688;-77
2022/06/24 04:51:13;;;;;;;4.80;2.40;;;;;;;14.80;66.07;97313.45;109956;1250;59720;-81
2022/06/24 04:53:43;;;;;;;3.80;2.50;;;;;;;14.98;65.83;97314.05;109998;1249;71439;-80
2022/06/24 04:56:12;;;;;;;4.10;3.40;;;;;;;15.17;65.18;97313.20;109936;1250;68592;-82
2022/06/24 04:58:41;;;;;;;4.80;3.30;;;;;;;15.31;64.26;97310.48;109974;1250;69526;-82
2022/06/24 05:01:10;;;;;;;6.70;3.30;;;;;;;15.42;63.87;97312.20;109890;1250;59674;-82
2022/06/24 05:03:39;;;;;;;5.10;3.50;;;;;;;15.56;63.83;97312.39;109930;1250;59628;-81
2022/06/24 05:06:09;;;;;;;7.70;3.70;;;;;;;15.74;63.33;97309.25;109999;1250;71368;-79
2022/06/24 05:08:38;;;;;;;4.10;2.80;;;;;;;15.99;62.57;97309.70;109837;1249;67959;-78
2022/06/24 05:11:07;;;;;;;5.40;3.10;;;;;;;16.36;64.24;97309.39;110110;1249;69243;-80
2022/06/24 05:13:36;;;;;;;4.60;2.90;;;;;;;16.78;62.24;97307.69;109970;1250;60123;-79
2022/06/24 05:16:05;;;;;;;6.50;3.00;;;;;;;17.39;62.54;97312.14;110158;1249;59636;-79
2022/06/24 05:18:54;;;;;;;5.10;3.20;;;;;;;18.08;61.18;97310.33;109843;1250;70365;-81
2022/06/24 05:21:23;;;;;;;4.00;2.80;;;;;;;18.63;55.72;97307.14;110155;1248;67953;-81
2022/06/24 05:23:52;;;;;;;2.60;2.30;;;;;;;19.17;57.38;97311.04;109983;1249;70038;-78
2022/06/24 05:26:22;;;;;;;3.70;2.80;;;;;;;19.61;55.67;97314.83;109903;1250;59686;-83
2022/06/24 05:28:51;;;;;;;3.00;2.50;;;;;;;19.81;50.28;97318.39;109826;1250;59683;-81
2022/06/24 05:31:20;;;;;;;3.20;2.20;;;;;;;19.84;47.88;97313.88;109845;1250;71638;-78
2022/06/24 05:33:49;;;;;;;4.30;2.40;;;;;;;19.79;47.83;97319.49;109982;1250;68456;-78
2022/06/24 05:36:19;;;;;;;3.40;2.10;;;;;;;19.80;48.61;97322.05;109779;1249;68582;-82
2022/06/24 05:38:48;;;;;;;3.50;2.50;;;;;;;19.68;47.82;97318.80;109958;1250;59744;-82
2022/06/24 05:41:17;;;;;;;2.60;1.70;;;;;;;19.63;48.41;97319.70;109899;1249;59686;-81
2022/06/24 05:43:47;;;;;;;3.90;1.70;;;;;;;19.66;48.23;97318.70;109811;1250;71688;-78
2022/06/24 05:46:16;;;;;;;;;;;;;;;19.76;49.39;97319.01;110214;1247;68750;-82
2022/06/24 05:48:45;;;;;;;2.40;1.70;;;;;;;19.80;48.53;97321.38;110243;1249;68725;-77
2022/06/24 05:51:16;;;;;;;4.70;2.20;;;;;;;19.80;47.90;97325.45;110116;1247;59713;-81
2022/06/24 05:56:33;;;;;;;2.90;2.30;;;;;;;19.74;48.30;97325.61;110142;1247;71546;-77
2022/06/24 05:59:04;;;;;;;3.70;2.60;;;;;;;19.74;48.22;97325.04;109963;1248;68756;-75
2022/06/24 06:01:33;;;;;;;5.30;2.90;;;;;;;19.73;48.39;97324.61;109842;1248;69200;-77
2022/06/24 06:04:02;;;;;;;3.20;2.30;;;;;;;19.67;48.25;97328.84;110002;1247;59688;-72
2022/06/24 06:06:31;;;;;;;4.20;2.90;;;;;;;19.65;46.62;97327.80;110206;1247;59663;-75
2022/06/24 06:09:01;;;;;;;4.00;2.80;;;;;;;19.84;47.71;97328.03;110140;1250;70986;-79
2022/06/24 06:11:30;;;;;;;4.30;2.70;;;;;;;19.94;47.56;97328.09;109878;1249;68775;-78
2022/06/24 06:13:59;;;;;;;5.50;2.90;;;;;;;19.98;47.94;97328.70;109932;1248;68683;-78
2022/06/24 06:16:28;;;;;;;4.70;2.50;;;;;;;20.02;46.28;97325.92;110168;1248;59766;-80
2022/06/24 06:18:57;;;;;;;4.00;2.60;;;;;;;20.18;46.66;97325.79;110280;1247;59718;-73
2022/06/24 06:21:27;;;;;;;4.30;2.70;;;;;;;20.33;47.54;97326.00;110197;1247;70662;-74
2022/06/24 06:23:56;;;;;;;3.10;2.50;;;;;;;20.34;46.68;97323.36;110167;1249;68601;-73
2022/06/24 06:26:25;;;;;;;3.60;2.70;;;;;;;20.52;46.30;97322.91;110205;1247;67515;-74
2022/06/24 06:28:54;;;;;;;3.70;2.30;;;;;;;20.71;45.10;97321.80;110191;1247;59739;-81
2022/06/24 06:31:24;;;;;;;2.60;2.00;;;;;;;20.88;43.37;97321.59;110204;1249;59746;-74
2022/06/24 06:33:53;;;;;;;3.30;2.40;;;;;;;21.29;44.21;97322.30;109870;1247;71569;-80
2022/06/24 06:36:22;;;;;;;2.90;2.30;;;;;;;21.75;43.37;97321.41;110232;1247;67796;-82
2022/06/24 06:38:51;;;;;;;3.70;2.50;;;;;;;22.05;41.80;97321.61;110184;1247;68730;-80
2022/06/24 06:41:20;;;;;;;3.10;1.90;;;;;;;22.43;42.48;97320.86;109997;1247;59767;-80
2022/06/24 06:43:49;;;;;;;3.60;2.60;;;;;;;22.92;42.16;97317.77;110228;1247;59694;-81
2022/06/24 06:46:25;;;;;;;2.00;1.70;;;;;;;23.46;40.10;97318.80;110036;1248;71662;-80
2022/06/24 06:48:55;;;;;;;3.80;2.00;;;;;;;23.84;38.11;97320.94;110143;1248;68669;-80
2022/06/24 06:51:24;;;;;;;4.80;2.20;;;;;;;24.26;39.03;97320.60;109967;1250;68744;-81
2022/06/24 06:53:52;;;;;;;2.70;1.90;;;;;;;24.54;37.88;97323.17;110196;1249;59691;-78
2022/06/24 06:56:22;;;;;;;2.50;1.90;;;;;;;24.85;37.02;97322.54;110259;1248;59729;-79
2022/06/24 06:58:51;;;;;;;3.80;2.10;;;;;;;24.86;36.30;97325.38;109997;1247;69743;-80
2022/06/24 07:01:20;;;;;;;3.60;1.90;;;;;;;24.98;36.77;97323.45;110178;1247;68696;-80
2022/06/24 07:03:49;;;;;;;3.90;2.20;;;;;;;25.39;36.26;97329.92;110016;1247;69473;-80
2022/06/24 07:06:18;;;;;;;2.10;1.90;;;;;;;25.64;35.57;97330.30;110261;1247;59681;-83
2022/06/24 07:08:47;;;;;;;2.20;1.50;;;;;;;25.96;35.26;97330.55;109932;1250;59706;-79
2022/06/24 07:11:16;;;;;;;2.30;2.00;;;;;;;26.25;34.38;97331.34;110230;1249;72180;-78
2022/06/24 07:13:45;;;;;;;3.20;2.10;;;;;;;26.10;33.97;97328.77;110223;1247;67949;-83
2022/06/24 07:16:14;;;;;;;2.60;1.70;;;;;;;26.06;33.97;97327.70;110262;1247;69549;-76
2022/06/24 07:18:43;;;;;;;5.60;2.30;;;;;;;26.30;33.41;97328.84;110177;1247;59751;-78
2022/06/24 07:21:13;;;;;;;3.50;1.90;;;;;;;26.33;33.70;97325.58;110177;1247;59689;-78
2022/06/24 07:23:43;;;;;;;4.60;2.20;;;;;;;26.68;33.56;97321.85;110205;1247;71217;-79
2022/06/24 07:26:12;;;;;;;2.90;1.80;;;;;;;26.38;33.43;97320.78;110261;1248;68022;-75
2022/06/24 07:28:41;;;;;;;3.20;2.20;;;;;;;26.36;33.70;97316.95;109764;1247;556821;-81
2022/06/24 07:31:15;;;;;;;2.70;2.30;;;;;;;26.74;32.83;97318.95;110207;1247;59681;-79
2022/06/24 07:33:45;;;;;;;3.40;2.20;;;;;;;26.34;32.67;97322.34;110273;1247;59636;-78
2022/06/24 07:36:14;;;;;;;2.90;2.20;;;;;;;26.58;32.83;97313.88;109925;1248;71649;-78
2022/06/24 07:38:43;;;;;;;3.10;2.20;;;;;;;26.75;31.43;97310.03;109763;1250;68504;-77
2022/06/24 07:41:13;;;;;;;;;;;;;;;26.53;31.72;97310.29;109949;1250;69278;-80
2022/06/24 07:43:43;;;;;;;2.10;1.90;;;;;;;26.09;32.37;97306.02;110335;1247;59665;-81
2022/06/24 07:46:12;;;;;;;4.50;2.20;;;;;;;26.40;32.45;97304.52;109996;1250;59788;-82
2022/06/24 07:48:42;;;;;;;2.40;2.00;;;;;;;26.96;30.82;97302.82;110231;1248;71626;-79
2022/06/24 07:51:13;;;;;;;3.40;2.10;;;;;;;27.24;30.24;97303.98;110197;1249;68216;-82
2022/06/24 07:53:45;;;;;;;1.90;1.50;;;;;;;27.54;29.54;97303.90;110238;1248;69372;-80
2022/06/24 07:59:06;;;;;;;4.00;2.00;;;;;;;27.92;28.32;97301.40;110037;1248;59724;-79
2022/06/24 08:01:35;;;;;;;2.30;1.90;;;;;;;28.08;28.80;97294.95;109881;1250;71513;-83
2022/06/24 08:04:07;;;;;;;2.20;1.60;;;;;;;28.57;29.52;97296.14;110174;1249;67826;-83
2022/06/24 08:06:39;;;;;;;2.30;1.60;;;;;;;29.04;27.37;97295.66;109994;1250;69490;-80
2022/06/24 08:09:08;;;;;;;3.10;1.60;;;;;;;29.59;27.83;97299.90;109936;1250;59755;-79
2022/06/24 08:11:38;;;;;;;1.60;1.50;;;;;;;30.03;26.81;97298.73;110207;1248;59687;-82
2022/06/24 08:14:07;;;;;;;2.50;1.60;;;;;;;30.22;26.68;97297.97;110053;1247;70786;-76
2022/06/24 08:16:36;;;;;;;1.60;1.30;;;;;;;30.12;26.11;97296.23;109940;1248;68614;-78
2022/06/24 08:19:11;;;;;;;2.40;1.50;;;;;;;30.32;26.07;97300.74;110207;1247;69195;-74
2022/06/24 08:21:40;;;;;;;1.70;1.40;;;;;;;30.37;25.93;97297.17;109981;1248;59691;-76
2022/06/24 08:24:10;;;;;;;2.30;1.50;;;;;;;30.76;25.57;97291.48;110106;1248;59660;-83
2022/06/24 08:26:39;;;;;;;2.30;1.60;;;;;;;30.70;24.45;97287.53;110174;1250;71566;-84
2022/06/24 08:29:09;;;;;;;3.50;1.40;;;;;;;30.76;24.24;97286.46;110248;1247;68576;-77
2022/06/24 08:31:39;;;;;;;1.10;1.00;;;;;;;30.22;23.59;97289.11;109956;1250;70107;-82
2022/06/24 08:34:08;;;;;;;2.10;1.00;;;;;;;30.54;23.10;97287.02;110178;1247;59710;-79
2022/06/24 08:36:36;;;;;;;;;;;;;;;30.87;22.50;97284.17;110265;1247;59722;-84
2022/06/24 08:39:06;;;;;;;1.80;1.10;;;;;;;31.04;23.07;97283.23;110238;1247;71552;-82
2022/06/24 08:41:39;;;;;;;1.80;1.30;;;;;;;31.13;23.23;97285.90;110226;1247;68518;-72
2022/06/24 08:44:14;;;;;;;1.30;1.10;;;;;;;30.84;22.38;97285.27;109965;1247;69553;-80
2022/06/24 08:46:43;;;;;;;2.70;1.30;;;;;;;30.85;22.25;97283.76;110104;1249;59745;-80
2022/06/24 08:49:12;;;;;;;1.50;1.20;;;;;;;30.85;22.95;97282.85;110281;1247;59624;-82
2022/06/24 08:51:45;;;;;;;1.60;1.30;;;;;;;31.10;23.02;97279.98;110249;1247;71422;-86
2022/06/24 08:54:18;;;;;;;1.70;1.30;;;;;;;30.71;23.16;97283.94;110253;1249;68456;-82
2022/06/24 08:56:55;;;;;;;1.50;1.20;;;;;;;30.75;22.05;97277.23;109924;1250;69429;-83
2022/06/24 08:59:27;;;;;;;1.60;1.00;;;;;;;30.95;22.08;97269.23;110189;1247;59725;-79
2022/06/24 09:01:56;;;;;;;1.50;1.40;;;;;;;31.29;21.93;97263.98;110232;1248;59708;-86
2022/06/24 09:04:25;;;;;;;2.20;1.20;;;;;;;31.25;22.67;97269.30;110200;1248;70770;-84
2022/06/24 09:06:54;;;;;;;1.40;1.20;;;;;;;30.82;22.06;97271.14;110231;1247;67798;-79
2022/06/24 09:09:26;;;;;;;1.10;1.00;;;;;;;31.12;23.07;97268.08;110293;1247;69481;-83
2022/06/24 09:11:57;;;;;;;4.90;1.80;;;;;;;31.39;22.77;97264.82;110507;1247;59695;-82
2022/06/24 09:14:48;;;;;;;2.00;1.30;;;;;;;31.35;22.85;97262.89;110556;1249;59654;-83
2022/06/24 09:17:17;;;;;;;1.80;1.40;;;;;;;31.85;23.13;97257.33;110294;1250;72242;-81
2022/06/24 09:19:46;;;;;;;2.40;1.30;;;;;;;32.23;22.51;97260.80;110247;1247;68162;-72
2022/06/24 09:22:35;;;;;;;3.00;1.50;;;;;;;32.54;22.46;97260.34;110233;1247;69538;-79
2022/06/24 09:25:07;;;;;;;2.60;1.50;;;;;;;32.28;22.91;97260.73;110269;1247;59672;-72
2022/06/24 09:27:45;;;;;;;1.70;1.20;;;;;;;32.55;22.64;97258.45;110265;1247;59659;-71
2022/06/24 09:30:19;;;;;;;2.20;1.30;;;;;;;32.50;22.16;97256.35;110253;1247;71526;-79
2022/06/24 09:32:51;;;;;;;1.80;1.50;;;;;;;32.14;21.95;97255.67;110276;1247;68690;-79
2022/06/24 09:35:40;;;;;;;2.30;1.40;;;;;;;31.74;21.84;97254.60;110190;1247;67868;-72
2022/06/24 09:38:09;;;;;;;2.50;1.20;;;;;;;31.82;21.62;97253.54;110244;1247;59692;-77
2022/06/24 09:40:41;;;;;;;1.40;1.30;;;;;;;32.17;20.97;97254.40;110256;1247;59694;-83
2022/06/24 09:43:10;;;;;;;1.70;1.20;;;;;;;32.29;21.39;97249.84;110078;1248;69756;-82
2022/06/24 09:45:50;;;;;;;1.90;1.30;;;;;;;32.47;21.08;97241.17;109881;1250;67841;-78
2022/06/24 09:48:33;;;;;;;2.40;1.40;;;;;;;32.45;21.16;97238.95;110085;1250;68560;-78
2022/06/24 09:51:04;;;;;;;2.90;1.30;;;;;;;31.71;22.24;97240.48;110083;1250;59690;-75
2022/06/24 09:53:41;;;;;;;2.70;1.20;;;;;;;31.57;22.92;97235.05;109966;1249;59686;-77
2022/06/24 09:56:11;;;;;;;1.20;1.10;;;;;;;31.86;23.42;97237.34;109888;1249;71541;-77
2022/06/24 09:58:43;;;;;;;1.70;1.30;;;;;;;31.73;23.86;97233.81;109922;1250;67850;-77
2022/06/24 10:01:12;;;;;;;1.60;1.10;;;;;;;31.89;24.02;97237.27;110022;1250;68668;-73
2022/06/24 10:03:50;;;;;;;1.70;1.20;;;;;;;31.78;23.44;97235.71;110192;1250;59678;-79
2022/06/24 10:06:23;;;;;;;1.30;1.00;;;;;;;31.79;23.10;97232.41;110064;1249;59686;-79
2022/06/24 10:08:53;;;;;;;2.40;1.60;;;;;;;31.97;23.36;97233.86;110285;1246;70768;-76
2022/06/24 10:11:40;;;;;;;1.50;1.30;;;;;;;31.73;22.16;97231.80;110010;1249;67544;-76
2022/06/24 10:14:12;;;;;;;1.20;1.10;;;;;;;31.61;22.78;97231.70;109936;1248;68680;-81
2022/06/24 10:16:49;;;;;;;1.30;1.20;;;;;;;31.49;23.70;97230.36;109957;1250;59751;-80
2022/06/24 10:19:23;;;;;;;1.40;1.20;;;;;;;31.63;23.41;97232.15;109928;1250;59748;-80
2022/06/24 10:21:52;;;;;;;2.20;1.50;;;;;;;31.52;23.44;97233.41;109948;1250;71589;-78
2022/06/24 10:24:21;;;;;;;;;;;;;;;31.16;23.11;97233.05;109886;1250;68757;-79
2022/06/24 10:26:55;;;;;;;1.90;1.50;;;;;;;31.22;23.47;97228.17;109906;1250;69555;-79
2022/06/24 10:29:29;;;;;;;2.50;1.30;;;;;;;31.41;21.98;97223.50;109987;1249;59638;-73
2022/06/24 10:32:00;;;;;;;1.30;1.20;;;;;;;31.18;22.23;97215.37;110078;1250;59776;-81
2022/06/24 10:34:33;;;;;;;1.80;1.20;;;;;;;31.15;22.26;97210.20;110046;1250;71244;-78
2022/06/24 10:37:06;;;;;;;2.40;1.40;;;;;;;31.14;22.43;97208.99;110153;1249;68856;-75
2022/06/24 10:39:46;;;;;;;3.20;1.30;;;;;;;30.91;22.61;97203.45;110073;1248;69426;-81
2022/06/24 10:42:20;;;;;;;1.90;1.20;;;;;;;30.81;22.73;97198.67;109919;1250;59712;-75
2022/06/24 10:45:02;;;;;;;2.20;1.50;;;;;;;30.79;23.11;97198.25;109978;1249;59696;-78
2022/06/24 10:47:34;;;;;;;1.20;1.10;;;;;;;30.74;24.55;97194.72;110134;1250;71467;-76
2022/06/24 10:50:06;;;;;;;1.50;1.10;;;;;;;30.98;24.10;97191.05;110166;1248;68074;-78
2022/06/24 10:52:45;;;;;;;1.30;1.20;;;;;;;30.77;23.67;97190.88;110150;1249;68654;-77
2022/06/24 10:55:17;;;;;;;2.30;1.20;;;;;;;30.60;23.87;97190.52;110073;1249;59758;-77
2022/06/24 10:57:57;;;;;;;1.70;1.40;;;;;;;30.32;23.87;97190.89;110171;1250;59688;-77
2022/06/24 11:00:54;;;;;;;2.60;1.50;;;;;;;29.70;24.38;97190.89;110035;1248;71863;-74
2022/06/24 11:03:28;;;;;;;2.80;1.60;;;;;;;29.50;24.65;97186.10;110165;1250;67930;-79
2022/06/24 11:05:57;;;;;;;1.30;1.10;;;;;;;29.14;25.49;97189.96;109896;1250;68769;-73
2022/06/24 11:08:27;;;;;;;1.20;1.10;;;;;;;29.30;25.85;97187.17;109986;1250;59766;-74
2022/06/24 11:10:56;;;;;;;;;;;;;;;29.15;25.85;97179.86;110100;1249;59643;-76
2022/06/24 11:13:25;;;;;;;2.00;1.50;;;;;;;29.16;25.90;97180.94;110124;1250;71345;-76
2022/06/24 11:15:58;;;;;;;1.30;1.10;;;;;;;28.79;26.32;97177.62;110083;1250;68646;-78
2022/06/24 11:18:33;;;;;;;1.50;1.30;;;;;;;28.32;26.55;97173.42;109987;1250;69393;-80
2022/06/24 11:21:08;;;;;;;2.50;1.50;;;;;;;27.68;27.11;97177.50;109877;1250;59826;-82
2022/06/24 11:23:39;;;;;;;1.40;1.30;;;;;;;27.90;27.20;97175.92;109954;1250;59693;-75
2022/06/24 11:26:16;;;;;;;2.40;1.80;;;;;;;28.02;27.25;97171.94;110122;1250;71566;-71
2022/06/24 11:28:51;;;;;;;2.30;1.40;;;;;;;28.16;26.58;97169.12;110097;1250;68096;-69
2022/06/24 11:31:24;;;;;;;1.90;1.20;;;;;;;28.47;26.46;97170.67;109956;1250;69554;-74
2022/06/24 11:34:05;;;;;;;2.50;1.20;;;;;;;29.07;27.11;97176.82;110065;1250;60101;-72
2022/06/24 11:36:36;;;;;;;2.20;1.30;;;;;;;29.71;25.04;97172.34;110131;1250;59725;-73
2022/06/24 11:39:09;;;;;;;1.70;1.50;;;;;;;30.00;24.81;97169.66;110063;1250;72239;-78
2022/06/24 11:41:40;;;;;;;3.40;1.40;;;;;;;30.02;26.07;97167.87;110024;1250;67749;-76
2022/06/24 11:44:36;;;;;;;1.80;1.20;;;;;;;29.93;25.48;97169.68;109902;1250;69948;-70
2022/06/24 11:47:06;;;;;;;1.40;1.20;;;;;;;29.84;25.38;97162.73;110153;1247;59692;-78
2022/06/24 11:49:37;;;;;;;1.20;1.00;;;;;;;29.75;26.28;97170.00;110164;1248;59703;-71
2022/06/24 11:52:06;;;;;;;2.10;1.20;;;;;;;29.78;25.04;97167.69;109886;1249;71591;-77
2022/06/24 11:54:35;;;;;;;;;;;;;;;29.79;24.96;97162.64;110198;1247;67862;-77
2022/06/24 11:57:10;;;;;;;1.70;1.20;;;;;;;29.78;25.89;97161.32;110177;1250;68635;-74
2022/06/24 11:59:39;;;;;;;1.30;1.10;;;;;;;29.71;26.30;97165.77;110198;1247;59656;-77